sensor_id;sensor_type;location;lat;lon;timestamp;pressure;altitude;pressure_sealevel;temperature;humidity
42169;BME280;27838;43.858;25.974;2022-10-16T00:01:16;101938.88;;;14.18;57.77
42169;BME280;27838;43.858;25.974;2022-10-16T00:03:43;101940.59;;;14.13;57.31
42169;BME280;27838;43.858;25.974;2022-10-16T00:06:11;101938.78;;;14.04;57.71
42169;BME280;27838;43.858;25.974;2022-10-16T00:08:39;101948.38;;;13.97;57.14
42169;BME280;27838;43.858;25.974;2022-10-16T00:11:08;101946.59;;;13.90;56.69
42169;BME280;27838;43.858;25.974;2022-10-16T00:13:36;101938.66;;;13.79;57.31
42169;BME280;27838;43.858;25.974;2022-10-16T00:16:04;101952.63;;;13.75;57.28
42169;BME280;27838;43.858;25.974;2022-10-16T00:18:31;101953.44;;;13.71;56.65
42169;BME280;27838;43.858;25.974;2022-10-16T00:21:15;101963.00;;;13.60;56.85
42169;BME280;27838;43.858;25.974;2022-10-16T00:23:42;101958.63;;;13.56;56.48
42169;BME280;27838;43.858;25.974;2022-10-16T00:26:12;101959.44;;;13.52;56.48
42169;BME280;27838;43.858;25.974;2022-10-16T00:28:40;101968.16;;;13.48;56.23
42169;BME280;27838;43.858;25.974;2022-10-16T00:31:11;101967.25;;;13.46;56.06
42169;BME280;27838;43.858;25.974;2022-10-16T00:33:39;101962.91;;;13.49;55.88
42169;BME280;27838;43.858;25.974;2022-10-16T00:36:07;101961.19;;;13.53;56.03
42169;BME280;27838;43.858;25.974;2022-10-16T00:38:35;101957.69;;;13.52;55.93
42169;BME280;27838;43.858;25.974;2022-10-16T00:41:03;101966.44;;;13.54;55.39
42169;BME280;27838;43.858;25.974;2022-10-16T00:43:48;101967.28;;;13.52;55.73
42169;BME280;27838;43.858;25.974;2022-10-16T00:46:19;101966.41;;;13.51;55.42
42169;BME280;27838;43.858;25.974;2022-10-16T00:51:31;101966.38;;;13.47;55.57
42169;BME280;27838;43.858;25.974;2022-10-16T00:53:59;101968.97;;;13.42;55.26
42169;BME280;27838;43.858;25.974;2022-10-16T00:56:26;101964.59;;;13.43;55.03
42169;BME280;27838;43.858;25.974;2022-10-16T00:58:53;101968.97;;;13.45;55.05
42169;BME280;27838;43.858;25.974;2022-10-16T01:01:19;101959.38;;;13.43;55.14
42169;BME280;27838;43.858;25.974;2022-10-16T01:03:46;101970.78;;;13.54;54.73
42169;BME280;27838;43.858;25.974;2022-10-16T01:06:24;101976.94;;;13.57;54.77
42169;BME280;27838;43.858;25.974;2022-10-16T01:14:00;101966.47;;;13.59;54.08
42169;BME280;27838;43.858;25.974;2022-10-16T01:16:35;101966.47;;;13.60;54.05
42169;BME280;27838;43.858;25.974;2022-10-16T01:21:57;101966.47;;;13.59;54.24
42169;BME280;27838;43.858;25.974;2022-10-16T01:24:43;101961.19;;;13.53;54.11
42169;BME280;27838;43.858;25.974;2022-10-16T01:30:10;101962.94;;;13.51;54.85
42169;BME280;27838;43.858;25.974;2022-10-16T01:32:43;101964.66;;;13.47;54.35
42169;BME280;27838;43.858;25.974;2022-10-16T01:35:23;101962.84;;;13.43;54.42
42169;BME280;27838;43.858;25.974;2022-10-16T01:40:20;101968.19;;;13.55;54.33
42169;BME280;27838;43.858;25.974;2022-10-16T01:42:59;101970.88;;;13.63;54.17
42169;BME280;27838;43.858;25.974;2022-10-16T01:45:28;101963.03;;;13.65;53.71
42169;BME280;27838;43.858;25.974;2022-10-16T01:47:57;101983.19;;;13.73;53.35
42169;BME280;27838;43.858;25.974;2022-10-16T01:50:24;101984.94;;;13.76;53.29
42169;BME280;27838;43.858;25.974;2022-10-16T01:52:54;101981.44;;;13.75;53.60
42169;BME280;27838;43.858;25.974;2022-10-16T01:55:27;101986.69;;;13.74;53.65
42169;BME280;27838;43.858;25.974;2022-10-16T01:57:56;101987.53;;;13.74;53.51
42169;BME280;27838;43.858;25.974;2022-10-16T02:00:26;101978.78;;;13.69;53.86
42169;BME280;27838;43.858;25.974;2022-10-16T02:02:54;101986.59;;;13.66;53.90
42169;BME280;27838;43.858;25.974;2022-10-16T02:05:26;101992.72;;;13.65;53.81
42169;BME280;27838;43.858;25.974;2022-10-16T02:07:54;101995.34;;;13.67;54.17
42169;BME280;27838;43.858;25.974;2022-10-16T02:10:20;101990.13;;;13.68;54.21
42169;BME280;27838;43.858;25.974;2022-10-16T02:12:57;101988.31;;;13.63;54.34
42169;BME280;27838;43.858;25.974;2022-10-16T02:15:25;101997.94;;;13.62;54.40
42169;BME280;27838;43.858;25.974;2022-10-16T02:17:52;101996.16;;;13.58;54.35
42169;BME280;27838;43.858;25.974;2022-10-16T02:20:24;101992.66;;;13.56;54.39
42169;BME280;27838;43.858;25.974;2022-10-16T02:22:52;102001.38;;;13.55;54.48
42169;BME280;27838;43.858;25.974;2022-10-16T02:25:36;101994.38;;;13.55;54.20
42169;BME280;27838;43.858;25.974;2022-10-16T02:28:09;102004.00;;;13.56;54.27
42169;BME280;27838;43.858;25.974;2022-10-16T02:30:53;102014.47;;;13.55;54.25
42169;BME280;27838;43.858;25.974;2022-10-16T02:33:23;102010.13;;;13.58;54.69
42169;BME280;27838;43.858;25.974;2022-10-16T02:35:52;102008.38;;;13.56;54.49
42169;BME280;27838;43.858;25.974;2022-10-16T02:38:21;102013.59;;;13.54;54.27
42169;BME280;27838;43.858;25.974;2022-10-16T02:40:49;102018.78;;;13.50;54.41
42169;BME280;27838;43.858;25.974;2022-10-16T02:43:16;102017.84;;;13.43;54.58
42169;BME280;27838;43.858;25.974;2022-10-16T02:45:42;102010.78;;;13.33;54.87
42169;BME280;27838;43.858;25.974;2022-10-16T02:48:09;102010.66;;;13.22;55.39
42169;BME280;27838;43.858;25.974;2022-10-16T02:50:35;102015.81;;;13.13;55.06
42169;BME280;27838;43.858;25.974;2022-10-16T02:53:02;102016.59;;;13.06;55.15
42169;BME280;27838;43.858;25.974;2022-10-16T02:55:29;102016.56;;;13.02;54.94
42169;BME280;27838;43.858;25.974;2022-10-16T02:57:55;102019.22;;;13.06;55.11
42169;BME280;27838;43.858;25.974;2022-10-16T03:00:22;102022.69;;;13.04;54.87
42169;BME280;27838;43.858;25.974;2022-10-16T03:02:49;102026.19;;;13.05;55.31
42169;BME280;27838;43.858;25.974;2022-10-16T03:05:16;102024.44;;;13.04;55.33
42169;BME280;27838;43.858;25.974;2022-10-16T03:07:42;102023.50;;;12.97;55.10
42169;BME280;27838;43.858;25.974;2022-10-16T03:10:09;102030.50;;;13.01;55.18
42169;BME280;27838;43.858;25.974;2022-10-16T03:12:36;102034.00;;;13.00;55.71
42169;BME280;27838;43.858;25.974;2022-10-16T03:15:03;102027.84;;;12.97;55.70
42169;BME280;27838;43.858;25.974;2022-10-16T03:17:31;102031.38;;;12.99;55.33
42169;BME280;27838;43.858;25.974;2022-10-16T03:19:58;102040.97;;;13.01;55.58
42169;BME280;27838;43.858;25.974;2022-10-16T03:22:24;102042.69;;;12.99;55.32
42169;BME280;27838;43.858;25.974;2022-10-16T03:24:51;102039.09;;;12.91;55.61
42169;BME280;27838;43.858;25.974;2022-10-16T03:27:18;102039.88;;;12.82;55.37
42169;BME280;27838;43.858;25.974;2022-10-16T03:29:44;102041.56;;;12.76;55.62
42169;BME280;27838;43.858;25.974;2022-10-16T03:32:11;102037.09;;;12.65;55.87
42169;BME280;27838;43.858;25.974;2022-10-16T03:34:37;102045.78;;;12.64;55.91
42169;BME280;27838;43.858;25.974;2022-10-16T03:37:04;102044.03;;;12.63;55.92
42169;BME280;27838;43.858;25.974;2022-10-16T03:39:30;102050.09;;;12.61;55.98
42169;BME280;27838;43.858;25.974;2022-10-16T03:41:57;102049.28;;;12.63;55.61
42169;BME280;27838;43.858;25.974;2022-10-16T03:44:23;102057.09;;;12.65;55.75
42169;BME280;27838;43.858;25.974;2022-10-16T03:46:50;102058.84;;;12.63;55.80
42169;BME280;27838;43.858;25.974;2022-10-16T03:49:16;102052.69;;;12.59;55.68
42169;BME280;27838;43.858;25.974;2022-10-16T03:51:43;102041.25;;;12.53;55.59
42169;BME280;27838;43.858;25.974;2022-10-16T03:54:10;102045.56;;;12.49;55.56
42169;BME280;27838;43.858;25.974;2022-10-16T03:56:36;102038.56;;;12.45;55.56
42169;BME280;27838;43.858;25.974;2022-10-16T03:59:03;102042.03;;;12.44;55.26
42169;BME280;27838;43.858;25.974;2022-10-16T04:01:29;102046.44;;;12.48;55.24
42169;BME280;27838;43.858;25.974;2022-10-16T04:03:56;102036.84;;;12.49;55.19
42169;BME280;27838;43.858;25.974;2022-10-16T04:06:23;102041.25;;;12.50;54.89
42169;BME280;27838;43.858;25.974;2022-10-16T04:08:49;102043.78;;;12.45;54.90
42169;BME280;27838;43.858;25.974;2022-10-16T04:11:16;102057.69;;;12.41;55.33
42169;BME280;27838;43.858;25.974;2022-10-16T04:13:42;102048.06;;;12.38;55.44
42169;BME280;27838;43.858;25.974;2022-10-16T04:16:09;102059.38;;;12.39;55.66
42169;BME280;27838;43.858;25.974;2022-10-16T04:18:35;102043.66;;;12.34;55.73
42169;BME280;27838;43.858;25.974;2022-10-16T04:21:06;102058.59;;;12.43;55.83
42169;BME280;27838;43.858;25.974;2022-10-16T04:23:32;102060.31;;;12.44;55.83
42169;BME280;27838;43.858;25.974;2022-10-16T04:25:59;102056.00;;;12.44;55.66
42169;BME280;27838;43.858;25.974;2022-10-16T04:28:26;102063.88;;;12.49;55.80
42169;BME280;27838;43.858;25.974;2022-10-16T04:30:53;102046.47;;;12.50;55.69
42169;BME280;27838;43.858;25.974;2022-10-16T04:33:19;102051.72;;;12.51;55.22
42169;BME280;27838;43.858;25.974;2022-10-16T04:35:46;102056.09;;;12.52;55.49
42169;BME280;27838;43.858;25.974;2022-10-16T04:38:12;102065.63;;;12.49;55.56
42169;BME280;27838;43.858;25.974;2022-10-16T04:40:41;102068.16;;;12.44;55.56
42169;BME280;27838;43.858;25.974;2022-10-16T04:43:08;102056.78;;;12.37;55.48
42169;BME280;27838;43.858;25.974;2022-10-16T04:45:34;102053.09;;;12.24;55.14
42169;BME280;27838;43.858;25.974;2022-10-16T04:48:01;102078.44;;;12.28;55.74
42169;BME280;27838;43.858;25.974;2022-10-16T04:50:27;102087.88;;;12.19;56.24
42169;BME280;27838;43.858;25.974;2022-10-16T04:52:54;102088.53;;;12.05;56.63
42169;BME280;27838;43.858;25.974;2022-10-16T04:55:20;102098.88;;;11.98;57.34
42169;BME280;27838;43.858;25.974;2022-10-16T04:57:47;102103.97;;;11.92;57.59
42169;BME280;27838;43.858;25.974;2022-10-16T05:00:14;102103.84;;;11.85;58.14
42169;BME280;27838;43.858;25.974;2022-10-16T05:02:40;102107.19;;;11.77;58.56
42169;BME280;27838;43.858;25.974;2022-10-16T05:05:07;102107.06;;;11.69;59.04
42169;BME280;27838;43.858;25.974;2022-10-16T05:07:34;102105.28;;;11.66;59.67
42169;BME280;27838;43.858;25.974;2022-10-16T05:10:00;102114.75;;;11.61;60.00
42169;BME280;27838;43.858;25.974;2022-10-16T05:12:27;102098.06;;;11.51;60.63
42169;BME280;27838;43.858;25.974;2022-10-16T05:14:53;102112.88;;;11.54;61.08
42169;BME280;27838;43.858;25.974;2022-10-16T05:17:24;102119.88;;;11.55;61.39
42169;BME280;27838;43.858;25.974;2022-10-16T05:19:51;102119.03;;;11.58;61.86
42169;BME280;27838;43.858;25.974;2022-10-16T05:22:18;102126.91;;;11.59;62.27
42169;BME280;27838;43.858;25.974;2022-10-16T05:24:44;102134.97;;;11.71;61.60
42169;BME280;27838;43.858;25.974;2022-10-16T05:27:11;102142.09;;;11.80;61.71
42169;BME280;27838;43.858;25.974;2022-10-16T05:29:45;102147.44;;;11.86;61.18
42169;BME280;27838;43.858;25.974;2022-10-16T05:32:13;102152.78;;;11.93;60.79
42169;BME280;27838;43.858;25.974;2022-10-16T05:34:40;102159.78;;;11.94;60.78
42169;BME280;27838;43.858;25.974;2022-10-16T05:37:07;102165.97;;;12.00;60.30
42169;BME280;27838;43.858;25.974;2022-10-16T05:39:33;102161.69;;;12.04;60.17
42169;BME280;27838;43.858;25.974;2022-10-16T05:42:02;102165.16;;;12.03;60.25
42169;BME280;27838;43.858;25.974;2022-10-16T05:44:28;102171.31;;;12.06;59.51
42169;BME280;27838;43.858;25.974;2022-10-16T05:46:55;102179.25;;;12.14;59.28
42169;BME280;27838;43.858;25.974;2022-10-16T05:49:21;102178.53;;;12.21;58.12
42169;BME280;27838;43.858;25.974;2022-10-16T05:51:48;102167.13;;;12.18;58.00
42169;BME280;27838;43.858;25.974;2022-10-16T05:54:14;102180.19;;;12.18;57.82
42169;BME280;27838;43.858;25.974;2022-10-16T05:56:41;102179.31;;;12.17;57.23
42169;BME280;27838;43.858;25.974;2022-10-16T05:59:08;102181.16;;;12.21;57.01
42169;BME280;27838;43.858;25.974;2022-10-16T06:01:34;102190.75;;;12.22;57.14
42169;BME280;27838;43.858;25.974;2022-10-16T06:04:01;102184.72;;;12.28;56.65
42169;BME280;27838;43.858;25.974;2022-10-16T06:06:29;102187.34;;;12.28;56.79
42169;BME280;27838;43.858;25.974;2022-10-16T06:08:56;102194.25;;;12.24;57.05
42169;BME280;27838;43.858;25.974;2022-10-16T06:11:27;102192.53;;;12.26;56.99
42169;BME280;27838;43.858;25.974;2022-10-16T06:13:56;102186.41;;;12.24;57.11
42169;BME280;27838;43.858;25.974;2022-10-16T06:16:26;102203.16;;;12.36;57.37
42169;BME280;27838;43.858;25.974;2022-10-16T06:18:54;102211.16;;;12.45;56.85
42169;BME280;27838;43.858;25.974;2022-10-16T06:21:23;102213.81;;;12.48;56.80
42169;BME280;27838;43.858;25.974;2022-10-16T06:23:51;102212.16;;;12.53;56.44
42169;BME280;27838;43.858;25.974;2022-10-16T06:26:19;102218.22;;;12.52;56.84
42169;BME280;27838;43.858;25.974;2022-10-16T06:28:47;102223.47;;;12.52;57.14
42169;BME280;27838;43.858;25.974;2022-10-16T06:31:14;102215.59;;;12.51;57.63
42169;BME280;27838;43.858;25.974;2022-10-16T06:33:41;102225.25;;;12.53;57.84
42169;BME280;27838;43.858;25.974;2022-10-16T06:36:13;102227.03;;;12.57;58.32
42169;BME280;27838;43.858;25.974;2022-10-16T06:38:41;102223.66;;;12.64;58.29
42169;BME280;27838;43.858;25.974;2022-10-16T06:41:11;102216.75;;;12.70;58.33
42169;BME280;27838;43.858;25.974;2022-10-16T06:43:38;102229.97;;;12.79;58.37
42169;BME280;27838;43.858;25.974;2022-10-16T06:46:06;102224.00;;;12.89;58.34
42169;BME280;27838;43.858;25.974;2022-10-16T06:48:34;102226.72;;;12.95;58.71
42169;BME280;27838;43.858;25.974;2022-10-16T06:51:05;102225.91;;;12.99;58.66
42169;BME280;27838;43.858;25.974;2022-10-16T06:53:35;102233.88;;;13.09;58.54
42169;BME280;27838;43.858;25.974;2022-10-16T06:56:22;102231.41;;;13.18;58.43
42169;BME280;27838;43.858;25.974;2022-10-16T06:58:51;102231.53;;;13.27;58.08
42169;BME280;27838;43.858;25.974;2022-10-16T07:01:19;102230.72;;;13.31;58.48
42169;BME280;27838;43.858;25.974;2022-10-16T07:03:47;102228.19;;;13.37;58.36
42169;BME280;27838;43.858;25.974;2022-10-16T07:06:18;102243.06;;;13.38;58.64
42169;BME280;27838;43.858;25.974;2022-10-16T07:08:46;102242.19;;;13.39;58.67
42169;BME280;27838;43.858;25.974;2022-10-16T07:11:16;102238.72;;;13.44;58.56
42169;BME280;27838;43.858;25.974;2022-10-16T07:13:43;102239.66;;;13.49;58.33
42169;BME280;27838;43.858;25.974;2022-10-16T07:16:16;102243.22;;;13.54;58.40
42169;BME280;27838;43.858;25.974;2022-10-16T07:18:43;102235.34;;;13.51;58.77
42169;BME280;27838;43.858;25.974;2022-10-16T07:21:19;102241.59;;;13.62;58.63
42169;BME280;27838;43.858;25.974;2022-10-16T07:23:57;102239.06;;;13.71;58.37
42169;BME280;27838;43.858;25.974;2022-10-16T07:26:25;102242.66;;;13.79;57.83
42169;BME280;27838;43.858;25.974;2022-10-16T07:28:52;102243.63;;;13.88;57.74
42169;BME280;27838;43.858;25.974;2022-10-16T07:31:20;102248.06;;;13.95;57.40
42169;BME280;27838;43.858;25.974;2022-10-16T07:33:47;102247.28;;;14.05;57.45
42169;BME280;27838;43.858;25.974;2022-10-16T07:36:16;102239.47;;;14.11;57.34
42169;BME280;27838;43.858;25.974;2022-10-16T07:38:45;102245.72;;;14.24;56.97
42169;BME280;27838;43.858;25.974;2022-10-16T07:41:14;102244.94;;;14.38;56.38
42169;BME280;27838;43.858;25.974;2022-10-16T07:43:46;102242.44;;;14.47;55.92
42169;BME280;27838;43.858;25.974;2022-10-16T07:46:13;102240.72;;;14.57;55.23
42169;BME280;27838;43.858;25.974;2022-10-16T07:48:39;102248.72;;;14.67;55.06
42169;BME280;27838;43.858;25.974;2022-10-16T07:51:07;102246.16;;;14.73;54.90
42169;BME280;27838;43.858;25.974;2022-10-16T07:53:33;102239.19;;;14.83;54.55
42169;BME280;27838;43.858;25.974;2022-10-16T07:56:02;102240.13;;;14.91;54.15
42169;BME280;27838;43.858;25.974;2022-10-16T07:58:30;102247.19;;;15.00;53.54
42169;BME280;27838;43.858;25.974;2022-10-16T08:00:58;102242.88;;;15.08;52.84
42169;BME280;27838;43.858;25.974;2022-10-16T08:03:25;102243.75;;;15.12;52.20
42169;BME280;27838;43.858;25.974;2022-10-16T08:05:52;102244.66;;;15.17;51.72
42169;BME280;27838;43.858;25.974;2022-10-16T08:08:19;102244.69;;;15.23;51.70
42169;BME280;27838;43.858;25.974;2022-10-16T08:10:45;102244.69;;;15.26;50.79
42169;BME280;27838;43.858;25.974;2022-10-16T08:13:12;102249.16;;;15.43;50.31
42169;BME280;27838;43.858;25.974;2022-10-16T08:15:41;102254.44;;;15.52;49.91
42169;BME280;27838;43.858;25.974;2022-10-16T08:18:08;102246.59;;;15.55;49.87
42169;BME280;27838;43.858;25.974;2022-10-16T08:20:35;102250.09;;;15.59;50.15
42169;BME280;27838;43.858;25.974;2022-10-16T08:23:02;102252.72;;;15.65;49.70
42169;BME280;27838;43.858;25.974;2022-10-16T08:25:29;102255.38;;;15.68;49.58
42169;BME280;27838;43.858;25.974;2022-10-16T08:27:56;102251.94;;;15.75;49.34
42169;BME280;27838;43.858;25.974;2022-10-16T08:30:23;102252.81;;;15.82;49.04
42169;BME280;27838;43.858;25.974;2022-10-16T08:32:50;102254.59;;;15.98;48.69
42169;BME280;27838;43.858;25.974;2022-10-16T08:35:16;102260.75;;;16.05;48.84
42169;BME280;27838;43.858;25.974;2022-10-16T08:37:43;102253.75;;;16.10;48.98
42169;BME280;27838;43.858;25.974;2022-10-16T08:40:29;102255.53;;;16.20;49.29
42169;BME280;27838;43.858;25.974;2022-10-16T08:48:49;102262.56;;;16.46;49.64
42169;BME280;27838;43.858;25.974;2022-10-16T08:51:20;102255.53;;;16.54;49.74
42169;BME280;27838;43.858;25.974;2022-10-16T08:53:54;102258.16;;;16.56;50.20
42169;BME280;27838;43.858;25.974;2022-10-16T08:56:22;102265.19;;;16.60;50.81
42169;BME280;27838;43.858;25.974;2022-10-16T08:58:50;102258.16;;;16.57;50.74
42169;BME280;27838;43.858;25.974;2022-10-16T09:01:19;102265.19;;;16.60;50.78
42169;BME280;27838;43.858;25.974;2022-10-16T09:15:35;102266.06;;;16.84;49.99
42169;BME280;27838;43.858;25.974;2022-10-16T09:18:17;102259.91;;;16.88;49.66
42169;BME280;27838;43.858;25.974;2022-10-16T09:23:30;102245.84;;;17.04;48.61
42169;BME280;27838;43.858;25.974;2022-10-16T09:26:01;102254.56;;;17.14;48.52
42169;BME280;27838;43.858;25.974;2022-10-16T09:28:28;102251.94;;;17.20;48.09
42169;BME280;27838;43.858;25.974;2022-10-16T09:30:55;102249.28;;;17.25;47.57
42169;BME280;27838;43.858;25.974;2022-10-16T09:33:37;102245.75;;;17.32;47.53
42169;BME280;27838;43.858;25.974;2022-10-16T09:36:05;102250.97;;;17.41;46.91
42169;BME280;27838;43.858;25.974;2022-10-16T09:38:34;102241.28;;;17.48;46.74
42169;BME280;27838;43.858;25.974;2022-10-16T09:41:21;102238.59;;;17.59;46.21
42169;BME280;27838;43.858;25.974;2022-10-16T09:43:56;102242.94;;;17.67;45.78
42169;BME280;27838;43.858;25.974;2022-10-16T09:46:43;102235.00;;;17.72;45.34
42169;BME280;27838;43.858;25.974;2022-10-16T09:49:36;102235.81;;;17.82;44.75
42169;BME280;27838;43.858;25.974;2022-10-16T09:52:12;102231.41;;;17.88;44.36
42169;BME280;27838;43.858;25.974;2022-10-16T09:54:53;102223.41;;;18.02;44.57
42169;BME280;27838;43.858;25.974;2022-10-16T09:57:20;102223.34;;;18.10;43.95
42169;BME280;27838;43.858;25.974;2022-10-16T09:59:56;102211.84;;;18.19;42.87
42169;BME280;27838;43.858;25.974;2022-10-16T10:02:36;102204.75;;;18.28;42.67
42169;BME280;27838;43.858;25.974;2022-10-16T10:05:05;102207.34;;;18.33;42.44
42169;BME280;27838;43.858;25.974;2022-10-16T10:07:37;102209.91;;;18.39;42.03
42169;BME280;27838;43.858;25.974;2022-10-16T10:10:18;102202.84;;;18.43;42.20
42169;BME280;27838;43.858;25.974;2022-10-16T10:12:45;102211.56;;;18.51;42.03
42169;BME280;27838;43.858;25.974;2022-10-16T10:15:13;102207.16;;;18.53;41.66
42169;BME280;27838;43.858;25.974;2022-10-16T10:17:56;102210.59;;;18.61;41.23
42169;BME280;27838;43.858;25.974;2022-10-16T10:20:34;102203.56;;;18.59;41.24
42169;BME280;27838;43.858;25.974;2022-10-16T10:23:24;102209.69;;;18.62;40.96
42169;BME280;27838;43.858;25.974;2022-10-16T10:26:21;102213.16;;;18.67;41.08
42169;BME280;27838;43.858;25.974;2022-10-16T10:29:24;102206.09;;;18.69;40.83
42169;BME280;27838;43.858;25.974;2022-10-16T10:40:30;102200.69;;;18.83;40.54
42169;BME280;27838;43.858;25.974;2022-10-16T10:43:04;102204.19;;;18.87;40.36
42169;BME280;27838;43.858;25.974;2022-10-16T10:45:44;102196.22;;;18.90;40.33
42169;BME280;27838;43.858;25.974;2022-10-16T10:48:54;102201.47;;;18.95;40.16
42169;BME280;27838;43.858;25.974;2022-10-16T10:54:35;102187.44;;;18.90;39.99
42169;BME280;27838;43.858;25.974;2022-10-16T11:00:18;102182.03;;;19.00;39.66
42169;BME280;27838;43.858;25.974;2022-10-16T11:05:41;102181.00;;;19.12;39.28
42169;BME280;27838;43.858;25.974;2022-10-16T11:08:16;102180.03;;;19.19;39.64
42169;BME280;27838;43.858;25.974;2022-10-16T11:10:53;102182.66;;;19.21;39.00
42169;BME280;27838;43.858;25.974;2022-10-16T11:14:28;102181.75;;;19.22;38.48
42169;BME280;27838;43.858;25.974;2022-10-16T11:17:21;102177.34;;;19.22;38.58
42169;BME280;27838;43.858;25.974;2022-10-16T11:19:51;102176.41;;;19.27;38.60
42169;BME280;27838;43.858;25.974;2022-10-16T11:22:48;102180.75;;;19.31;38.17
42169;BME280;27838;43.858;25.974;2022-10-16T11:25:27;102179.03;;;19.28;38.42
42169;BME280;27838;43.858;25.974;2022-10-16T11:28:02;102172.91;;;19.26;38.61
42169;BME280;27838;43.858;25.974;2022-10-16T11:30:44;102172.88;;;19.29;38.29
42169;BME280;27838;43.858;25.974;2022-10-16T11:49:36;102161.34;;;19.33;37.94
42169;BME280;27838;43.858;25.974;2022-10-16T11:52:20;102170.16;;;19.32;38.12
42169;BME280;27838;43.858;25.974;2022-10-16T11:54:59;102162.22;;;19.32;38.76
42169;BME280;27838;43.858;25.974;2022-10-16T11:57:34;102146.44;;;19.28;38.75
42169;BME280;27838;43.858;25.974;2022-10-16T12:00:22;102156.06;;;19.33;38.58
42169;BME280;27838;43.858;25.974;2022-10-16T12:08:14;102163.06;;;19.36;38.90
42169;BME280;27838;43.858;25.974;2022-10-16T12:10:44;102162.22;;;19.32;38.84
42169;BME280;27838;43.858;25.974;2022-10-16T12:13:35;102170.22;;;19.29;38.64
42169;BME280;27838;43.858;25.974;2022-10-16T12:18:39;102166.84;;;19.18;38.88
42169;BME280;27838;43.858;25.974;2022-10-16T12:21:07;102170.38;;;19.17;39.00
42169;BME280;27838;43.858;25.974;2022-10-16T12:23:46;102176.50;;;19.20;38.86
42169;BME280;27838;43.858;25.974;2022-10-16T12:26:13;102181.72;;;19.23;38.62
42169;BME280;27838;43.858;25.974;2022-10-16T12:28:41;102179.97;;;19.24;38.78
42169;BME280;27838;43.858;25.974;2022-10-16T12:31:09;102178.22;;;19.23;38.41
42169;BME280;27838;43.858;25.974;2022-10-16T12:33:40;102176.44;;;19.23;38.41
42169;BME280;27838;43.858;25.974;2022-10-16T12:36:27;102177.34;;;19.24;38.99
42169;BME280;27838;43.858;25.974;2022-10-16T12:38:55;102172.94;;;19.23;39.14
42169;BME280;27838;43.858;25.974;2022-10-16T12:41:26;102174.69;;;19.26;38.79
42169;BME280;27838;43.858;25.974;2022-10-16T12:43:53;102172.00;;;19.27;38.72
42169;BME280;27838;43.858;25.974;2022-10-16T12:51:38;102177.28;;;19.27;38.24
42169;BME280;27838;43.858;25.974;2022-10-16T12:54:18;102174.63;;;19.29;37.82
42169;BME280;27838;43.858;25.974;2022-10-16T12:56:58;102179.03;;;19.28;38.09
42169;BME280;27838;43.858;25.974;2022-10-16T13:00:21;102167.63;;;19.26;38.42
42169;BME280;27838;43.858;25.974;2022-10-16T13:05:15;102183.34;;;19.35;37.86
42169;BME280;27838;43.858;25.974;2022-10-16T13:07:57;102180.72;;;19.34;38.12
42169;BME280;27838;43.858;25.974;2022-10-16T13:13:20;102180.69;;;19.37;38.43
42169;BME280;27838;43.858;25.974;2022-10-16T13:21:05;102188.50;;;19.43;37.76
42169;BME280;27838;43.858;25.974;2022-10-16T13:26:44;102178.88;;;19.40;37.26
42169;BME280;27838;43.858;25.974;2022-10-16T13:29:13;102192.88;;;19.49;37.02
42169;BME280;27838;43.858;25.974;2022-10-16T13:31:42;102189.31;;;19.50;37.43
42169;BME280;27838;43.858;25.974;2022-10-16T13:34:21;102184.94;;;19.47;37.15
42169;BME280;27838;43.858;25.974;2022-10-16T13:36:51;102185.81;;;19.48;37.06
42169;BME280;27838;43.858;25.974;2022-10-16T13:39:29;102182.28;;;19.49;37.01
42169;BME280;27838;43.858;25.974;2022-10-16T13:42:05;102180.53;;;19.48;36.96
42169;BME280;27838;43.858;25.974;2022-10-16T13:44:39;102180.59;;;19.43;37.09
42169;BME280;27838;43.858;25.974;2022-10-16T13:47:15;102180.66;;;19.40;37.19
42169;BME280;27838;43.858;25.974;2022-10-16T13:49:42;102184.16;;;19.40;37.03
42169;BME280;27838;43.858;25.974;2022-10-16T13:52:18;102196.53;;;19.38;36.91
42169;BME280;27838;43.858;25.974;2022-10-16T13:54:45;102189.50;;;19.34;36.62
42169;BME280;27838;43.858;25.974;2022-10-16T13:57:14;102200.09;;;19.34;36.73
42169;BME280;27838;43.858;25.974;2022-10-16T13:59:41;102200.16;;;19.31;36.97
42169;BME280;27838;43.858;25.974;2022-10-16T14:02:30;102193.97;;;19.31;37.00
42169;BME280;27838;43.858;25.974;2022-10-16T14:05:02;102197.53;;;19.30;37.06
42169;BME280;27838;43.858;25.974;2022-10-16T14:07:31;102191.41;;;19.24;37.11
42169;BME280;27838;43.858;25.974;2022-10-16T14:10:03;102202.81;;;19.30;36.98
42169;BME280;27838;43.858;25.974;2022-10-16T14:12:30;102205.47;;;19.28;36.78
42169;BME280;27838;43.858;25.974;2022-10-16T14:14:57;102207.25;;;19.26;37.05
42169;BME280;27838;43.858;25.974;2022-10-16T14:17:31;102204.66;;;19.21;36.90
42169;BME280;27838;43.858;25.974;2022-10-16T14:20:00;102212.59;;;19.23;36.98
42169;BME280;27838;43.858;25.974;2022-10-16T14:25:00;102221.41;;;19.22;36.69
42169;BME280;27838;43.858;25.974;2022-10-16T14:27:35;102226.75;;;19.19;36.71
42169;BME280;27838;43.858;25.974;2022-10-16T14:30:11;102216.19;;;19.17;37.12
42169;BME280;27838;43.858;25.974;2022-10-16T14:32:40;102216.16;;;19.19;37.01
42169;BME280;27838;43.858;25.974;2022-10-16T14:35:43;102216.16;;;19.19;36.87
42169;BME280;27838;43.858;25.974;2022-10-16T14:38:19;102208.28;;;19.16;36.60
42169;BME280;27838;43.858;25.974;2022-10-16T14:40:48;102213.56;;;19.16;36.50